sensor_id;sensor_type;location;lat;lon;timestamp;temperature;humidity
67101;DHT22;54019;61.746;16.106;2022-12-18T00:01:15;17.60;27.10
67101;DHT22;54019;61.746;16.106;2022-12-18T00:03:42;17.60;27.30
67101;DHT22;54019;61.746;16.106;2022-12-18T00:06:08;17.60;27.30
67101;DHT22;54019;61.746;16.106;2022-12-18T00:08:34;17.60;27.20
67101;DHT22;54019;61.746;16.106;2022-12-18T00:11:03;17.60;27.20
67101;DHT22;54019;61.746;16.106;2022-12-18T00:13:29;17.60;27.20
67101;DHT22;54019;61.746;16.106;2022-12-18T00:16:01;17.60;27.20
67101;DHT22;54019;61.746;16.106;2022-12-18T00:18:27;17.60;27.30
67101;DHT22;54019;61.746;16.106;2022-12-18T00:20:53;17.60;27.30
67101;DHT22;54019;61.746;16.106;2022-12-18T00:23:19;17.60;27.20
67101;DHT22;54019;61.746;16.106;2022-12-18T00:25:44;17.60;27.20
67101;DHT22;54019;61.746;16.106;2022-12-18T00:28:10;17.60;27.30
67101;DHT22;54019;61.746;16.106;2022-12-18T00:30:36;17.60;27.30
67101;DHT22;54019;61.746;16.106;2022-12-18T00:33:03;17.60;27.00
67101;DHT22;54019;61.746;16.106;2022-12-18T00:35:29;17.60;26.90
67101;DHT22;54019;61.746;16.106;2022-12-18T00:37:55;17.60;27.00
67101;DHT22;54019;61.746;16.106;2022-12-18T00:40:20;17.60;27.20
67101;DHT22;54019;61.746;16.106;2022-12-18T00:42:46;17.60;27.20
67101;DHT22;54019;61.746;16.106;2022-12-18T00:45:12;17.60;27.30
67101;DHT22;54019;61.746;16.106;2022-12-18T00:47:38;17.60;27.30
67101;DHT22;54019;61.746;16.106;2022-12-18T00:50:06;17.60;27.30
67101;DHT22;54019;61.746;16.106;2022-12-18T00:52:32;17.60;27.30
67101;DHT22;54019;61.746;16.106;2022-12-18T00:54:58;17.60;27.30
67101;DHT22;54019;61.746;16.106;2022-12-18T00:57:24;17.60;27.30
67101;DHT22;54019;61.746;16.106;2022-12-18T00:59:50;17.60;27.30
67101;DHT22;54019;61.746;16.106;2022-12-18T01:02:16;17.60;27.10
67101;DHT22;54019;61.746;16.106;2022-12-18T01:04:41;17.60;27.20
67101;DHT22;54019;61.746;16.106;2022-12-18T01:07:08;17.60;27.30
67101;DHT22;54019;61.746;16.106;2022-12-18T01:09:34;17.60;27.30
67101;DHT22;54019;61.746;16.106;2022-12-18T01:12:00;17.60;27.40
67101;DHT22;54019;61.746;16.106;2022-12-18T01:14:26;17.60;27.20
67101;DHT22;54019;61.746;16.106;2022-12-18T01:16:52;17.60;27.20
67101;DHT22;54019;61.746;16.106;2022-12-18T01:19:18;17.60;27.10
67101;DHT22;54019;61.746;16.106;2022-12-18T01:21:43;17.60;29.00
67101;DHT22;54019;61.746;16.106;2022-12-18T01:24:11;17.70;37.80
67101;DHT22;54019;61.746;16.106;2022-12-18T01:26:37;17.80;35.20
67101;DHT22;54019;61.746;16.106;2022-12-18T01:29:03;17.90;34.20
67101;DHT22;54019;61.746;16.106;2022-12-18T01:31:30;17.90;32.70
67101;DHT22;54019;61.746;16.106;2022-12-18T01:33:57;17.90;31.90
67101;DHT22;54019;61.746;16.106;2022-12-18T01:36:24;17.90;31.70
67101;DHT22;54019;61.746;16.106;2022-12-18T01:38:51;17.90;31.50
67101;DHT22;54019;61.746;16.106;2022-12-18T01:41:20;17.80;30.80
67101;DHT22;54019;61.746;16.106;2022-12-18T01:43:49;17.80;30.50
67101;DHT22;54019;61.746;16.106;2022-12-18T01:46:16;17.80;30.30
67101;DHT22;54019;61.746;16.106;2022-12-18T01:48:43;17.80;29.80
67101;DHT22;54019;61.746;16.106;2022-12-18T01:51:10;17.80;29.40
67101;DHT22;54019;61.746;16.106;2022-12-18T01:53:37;17.80;29.40
67101;DHT22;54019;61.746;16.106;2022-12-18T01:56:04;17.80;29.30
67101;DHT22;54019;61.746;16.106;2022-12-18T01:58:37;17.80;29.20
67101;DHT22;54019;61.746;16.106;2022-12-18T02:01:05;17.70;29.20
67101;DHT22;54019;61.746;16.106;2022-12-18T02:03:31;17.70;29.00
67101;DHT22;54019;61.746;16.106;2022-12-18T02:06:01;17.70;29.00
67101;DHT22;54019;61.746;16.106;2022-12-18T02:08:34;17.70;29.00
67101;DHT22;54019;61.746;16.106;2022-12-18T02:11:06;17.70;28.90
67101;DHT22;54019;61.746;16.106;2022-12-18T02:13:40;17.70;28.70
67101;DHT22;54019;61.746;16.106;2022-12-18T02:16:12;17.70;28.50
67101;DHT22;54019;61.746;16.106;2022-12-18T02:18:41;17.70;28.40
67101;DHT22;54019;61.746;16.106;2022-12-18T02:21:15;17.70;28.10
67101;DHT22;54019;61.746;16.106;2022-12-18T02:23:51;17.70;28.40
67101;DHT22;54019;61.746;16.106;2022-12-18T02:26:27;17.70;28.10
67101;DHT22;54019;61.746;16.106;2022-12-18T02:28:59;17.60;28.00
67101;DHT22;54019;61.746;16.106;2022-12-18T02:31:28;17.60;28.10
67101;DHT22;54019;61.746;16.106;2022-12-18T02:34:01;17.60;28.20
67101;DHT22;54019;61.746;16.106;2022-12-18T02:36:28;17.60;28.00
67101;DHT22;54019;61.746;16.106;2022-12-18T02:38:56;17.60;28.60
67101;DHT22;54019;61.746;16.106;2022-12-18T02:41:27;17.60;28.60
67101;DHT22;54019;61.746;16.106;2022-12-18T02:43:56;17.50;27.90
67101;DHT22;54019;61.746;16.106;2022-12-18T02:46:33;17.60;27.90
67101;DHT22;54019;61.746;16.106;2022-12-18T02:49:06;17.60;27.80
67101;DHT22;54019;61.746;16.106;2022-12-18T02:51:42;17.50;27.80
67101;DHT22;54019;61.746;16.106;2022-12-18T02:54:16;17.60;27.60
67101;DHT22;54019;61.746;16.106;2022-12-18T02:56:50;17.60;27.70
67101;DHT22;54019;61.746;16.106;2022-12-18T02:59:19;17.60;27.50
67101;DHT22;54019;61.746;16.106;2022-12-18T03:01:52;17.60;27.60
67101;DHT22;54019;61.746;16.106;2022-12-18T03:04:26;17.50;27.60
67101;DHT22;54019;61.746;16.106;2022-12-18T03:06:56;17.50;27.60
67101;DHT22;54019;61.746;16.106;2022-12-18T03:09:30;17.50;27.60
67101;DHT22;54019;61.746;16.106;2022-12-18T03:12:02;17.50;27.50
67101;DHT22;54019;61.746;16.106;2022-12-18T03:14:31;17.50;27.60
67101;DHT22;54019;61.746;16.106;2022-12-18T03:17:02;17.50;27.60
67101;DHT22;54019;61.746;16.106;2022-12-18T03:19:32;17.50;27.50
67101;DHT22;54019;61.746;16.106;2022-12-18T03:22:01;17.50;27.20
67101;DHT22;54019;61.746;16.106;2022-12-18T03:24:29;17.40;27.40
67101;DHT22;54019;61.746;16.106;2022-12-18T03:27:01;17.40;27.30
67101;DHT22;54019;61.746;16.106;2022-12-18T03:29:32;17.40;27.40
67101;DHT22;54019;61.746;16.106;2022-12-18T03:32:03;17.40;27.30
67101;DHT22;54019;61.746;16.106;2022-12-18T03:34:33;17.40;27.30
67101;DHT22;54019;61.746;16.106;2022-12-18T03:37:04;17.40;27.20
67101;DHT22;54019;61.746;16.106;2022-12-18T03:39:30;17.40;27.20
67101;DHT22;54019;61.746;16.106;2022-12-18T03:42:04;17.40;27.20
67101;DHT22;54019;61.746;16.106;2022-12-18T03:44:36;17.40;27.10
67101;DHT22;54019;61.746;16.106;2022-12-18T03:47:08;17.40;27.20
67101;DHT22;54019;61.746;16.106;2022-12-18T03:49:40;17.30;27.20
67101;DHT22;54019;61.746;16.106;2022-12-18T03:52:13;17.40;27.30
67101;DHT22;54019;61.746;16.106;2022-12-18T03:54:44;17.30;27.20
67101;DHT22;54019;61.746;16.106;2022-12-18T03:57:14;17.30;27.20
67101;DHT22;54019;61.746;16.106;2022-12-18T03:59:43;17.30;27.30
67101;DHT22;54019;61.746;16.106;2022-12-18T04:02:09;17.40;27.20
67101;DHT22;54019;61.746;16.106;2022-12-18T04:04:37;17.40;27.20
67101;DHT22;54019;61.746;16.106;2022-12-18T04:07:04;17.30;27.20
67101;DHT22;54019;61.746;16.106;2022-12-18T04:09:32;17.40;27.10
67101;DHT22;54019;61.746;16.106;2022-12-18T04:11:58;17.50;27.00
67101;DHT22;54019;61.746;16.106;2022-12-18T04:14:25;17.60;26.80
67101;DHT22;54019;61.746;16.106;2022-12-18T04:16:51;17.70;26.60
67101;DHT22;54019;61.746;16.106;2022-12-18T04:19:17;17.70;26.00
67101;DHT22;54019;61.746;16.106;2022-12-18T04:21:43;17.80;26.70
67101;DHT22;54019;61.746;16.106;2022-12-18T04:24:08;17.90;25.90
67101;DHT22;54019;61.746;16.106;2022-12-18T04:26:34;18.00;26.00
67101;DHT22;54019;61.746;16.106;2022-12-18T04:29:00;18.00;26.00
67101;DHT22;54019;61.746;16.106;2022-12-18T04:31:28;18.00;25.80
67101;DHT22;54019;61.746;16.106;2022-12-18T04:33:53;18.00;26.00
67101;DHT22;54019;61.746;16.106;2022-12-18T04:36:19;18.00;25.90
67101;DHT22;54019;61.746;16.106;2022-12-18T04:38:45;18.00;26.20
67101;DHT22;54019;61.746;16.106;2022-12-18T04:41:14;17.90;26.50
67101;DHT22;54019;61.746;16.106;2022-12-18T04:43:40;17.90;27.40
67101;DHT22;54019;61.746;16.106;2022-12-18T04:46:06;17.90;27.20
67101;DHT22;54019;61.746;16.106;2022-12-18T04:48:34;17.90;27.30
67101;DHT22;54019;61.746;16.106;2022-12-18T04:51:00;17.90;27.60
67101;DHT22;54019;61.746;16.106;2022-12-18T04:53:26;17.90;27.40
67101;DHT22;54019;61.746;16.106;2022-12-18T04:56:03;18.00;27.10
67101;DHT22;54019;61.746;16.106;2022-12-18T04:58:29;17.90;26.80
67101;DHT22;54019;61.746;16.106;2022-12-18T05:00:55;18.00;26.20
67101;DHT22;54019;61.746;16.106;2022-12-18T05:03:20;17.90;26.30
67101;DHT22;54019;61.746;16.106;2022-12-18T05:05:51;18.00;25.90
67101;DHT22;54019;61.746;16.106;2022-12-18T05:08:16;18.00;25.60
67101;DHT22;54019;61.746;16.106;2022-12-18T05:10:42;18.10;25.60
67101;DHT22;54019;61.746;16.106;2022-12-18T05:13:08;18.10;25.40
67101;DHT22;54019;61.746;16.106;2022-12-18T05:15:34;18.20;25.20
67101;DHT22;54019;61.746;16.106;2022-12-18T05:18:01;18.20;25.20
67101;DHT22;54019;61.746;16.106;2022-12-18T05:20:27;18.20;24.90
67101;DHT22;54019;61.746;16.106;2022-12-18T05:22:55;18.20;25.10
67101;DHT22;54019;61.746;16.106;2022-12-18T05:25:21;18.20;25.40
67101;DHT22;54019;61.746;16.106;2022-12-18T05:27:47;18.20;25.30
67101;DHT22;54019;61.746;16.106;2022-12-18T05:30:14;18.20;25.40
67101;DHT22;54019;61.746;16.106;2022-12-18T05:32:40;18.20;25.30
67101;DHT22;54019;61.746;16.106;2022-12-18T05:35:07;18.20;25.70
67101;DHT22;54019;61.746;16.106;2022-12-18T05:37:33;18.20;25.70
67101;DHT22;54019;61.746;16.106;2022-12-18T05:40:00;18.20;25.80
67101;DHT22;54019;61.746;16.106;2022-12-18T05:42:26;18.10;25.80
67101;DHT22;54019;61.746;16.106;2022-12-18T05:44:52;18.10;26.00
67101;DHT22;54019;61.746;16.106;2022-12-18T05:47:18;18.10;26.00
67101;DHT22;54019;61.746;16.106;2022-12-18T05:49:44;18.10;26.10
67101;DHT22;54019;61.746;16.106;2022-12-18T05:52:09;18.00;26.20
67101;DHT22;54019;61.746;16.106;2022-12-18T05:54:35;18.00;26.30
67101;DHT22;54019;61.746;16.106;2022-12-18T05:57:02;18.00;26.30
67101;DHT22;54019;61.746;16.106;2022-12-18T05:59:28;18.00;26.20
67101;DHT22;54019;61.746;16.106;2022-12-18T06:01:54;18.00;26.20
67101;DHT22;54019;61.746;16.106;2022-12-18T06:04:20;18.10;26.10
67101;DHT22;54019;61.746;16.106;2022-12-18T06:06:46;18.10;25.70
67101;DHT22;54019;61.746;16.106;2022-12-18T06:09:11;18.10;25.10
67101;DHT22;54019;61.746;16.106;2022-12-18T06:11:38;18.20;25.10
67101;DHT22;54019;61.746;16.106;2022-12-18T06:14:05;18.20;25.10
67101;DHT22;54019;61.746;16.106;2022-12-18T06:16:32;18.30;25.00
67101;DHT22;54019;61.746;16.106;2022-12-18T06:18:58;18.30;25.00
67101;DHT22;54019;61.746;16.106;2022-12-18T06:21:24;18.30;24.70
67101;DHT22;54019;61.746;16.106;2022-12-18T06:23:50;18.40;24.50
67101;DHT22;54019;61.746;16.106;2022-12-18T06:26:16;18.40;24.50
67101;DHT22;54019;61.746;16.106;2022-12-18T06:28:42;18.30;24.60
67101;DHT22;54019;61.746;16.106;2022-12-18T06:31:09;18.30;24.60
67101;DHT22;54019;61.746;16.106;2022-12-18T06:33:35;18.30;25.20
67101;DHT22;54019;61.746;16.106;2022-12-18T06:36:02;18.30;25.00
67101;DHT22;54019;61.746;16.106;2022-12-18T06:38:28;18.30;25.00
67101;DHT22;54019;61.746;16.106;2022-12-18T06:40:54;18.30;25.10
67101;DHT22;54019;61.746;16.106;2022-12-18T06:43:20;18.30;25.20
67101;DHT22;54019;61.746;16.106;2022-12-18T06:45:46;18.20;25.60
67101;DHT22;54019;61.746;16.106;2022-12-18T06:48:13;18.20;25.70
67101;DHT22;54019;61.746;16.106;2022-12-18T06:50:42;18.20;25.80
67101;DHT22;54019;61.746;16.106;2022-12-18T06:53:08;18.10;25.70
67101;DHT22;54019;61.746;16.106;2022-12-18T06:55:33;18.10;26.10
67101;DHT22;54019;61.746;16.106;2022-12-18T06:57:59;18.10;26.10
67101;DHT22;54019;61.746;16.106;2022-12-18T07:00:25;18.10;26.20
67101;DHT22;54019;61.746;16.106;2022-12-18T07:02:51;18.00;26.30
67101;DHT22;54019;61.746;16.106;2022-12-18T07:05:18;18.00;26.80
67101;DHT22;54019;61.746;16.106;2022-12-18T07:07:44;18.00;26.20
67101;DHT22;54019;61.746;16.106;2022-12-18T07:10:10;18.00;26.50
67101;DHT22;54019;61.746;16.106;2022-12-18T07:12:35;18.00;26.90
67101;DHT22;54019;61.746;16.106;2022-12-18T07:15:01;18.10;27.80
67101;DHT22;54019;61.746;16.106;2022-12-18T07:17:27;18.30;28.00
67101;DHT22;54019;61.746;16.106;2022-12-18T07:19:53;18.50;28.40
67101;DHT22;54019;61.746;16.106;2022-12-18T07:22:20;18.90;28.00
67101;DHT22;54019;61.746;16.106;2022-12-18T07:24:49;19.10;28.00
67101;DHT22;54019;61.746;16.106;2022-12-18T07:27:14;19.30;27.40
67101;DHT22;54019;61.746;16.106;2022-12-18T07:29:40;19.40;27.40
67101;DHT22;54019;61.746;16.106;2022-12-18T07:32:06;19.40;27.40
67101;DHT22;54019;61.746;16.106;2022-12-18T07:34:32;19.40;27.20
67101;DHT22;54019;61.746;16.106;2022-12-18T07:36:58;19.20;27.20
67101;DHT22;54019;61.746;16.106;2022-12-18T07:39:25;18.90;27.10
67101;DHT22;54019;61.746;16.106;2022-12-18T07:41:51;18.80;27.50
67101;DHT22;54019;61.746;16.106;2022-12-18T07:44:16;18.80;28.00
67101;DHT22;54019;61.746;16.106;2022-12-18T07:46:42;18.70;28.10
67101;DHT22;54019;61.746;16.106;2022-12-18T07:49:08;18.60;27.60
67101;DHT22;54019;61.746;16.106;2022-12-18T07:51:34;18.50;27.50
67101;DHT22;54019;61.746;16.106;2022-12-18T07:54:00;18.50;28.10
67101;DHT22;54019;61.746;16.106;2022-12-18T07:56:27;18.50;28.40
67101;DHT22;54019;61.746;16.106;2022-12-18T07:58:53;18.40;28.30
67101;DHT22;54019;61.746;16.106;2022-12-18T08:01:19;18.40;28.20
67101;DHT22;54019;61.746;16.106;2022-12-18T08:03:45;18.40;28.60
67101;DHT22;54019;61.746;16.106;2022-12-18T08:06:10;18.30;28.20
67101;DHT22;54019;61.746;16.106;2022-12-18T08:08:36;18.30;28.30
67101;DHT22;54019;61.746;16.106;2022-12-18T08:11:02;18.20;28.20
67101;DHT22;54019;61.746;16.106;2022-12-18T08:13:30;18.30;28.20
67101;DHT22;54019;61.746;16.106;2022-12-18T08:15:56;18.30;28.10
67101;DHT22;54019;61.746;16.106;2022-12-18T08:18:22;18.30;27.80
67101;DHT22;54019;61.746;16.106;2022-12-18T08:20:48;18.40;27.60
67101;DHT22;54019;61.746;16.106;2022-12-18T08:23:14;18.40;27.50
67101;DHT22;54019;61.746;16.106;2022-12-18T08:25:40;18.50;27.10
67101;DHT22;54019;61.746;16.106;2022-12-18T08:28:05;18.40;26.30
67101;DHT22;54019;61.746;16.106;2022-12-18T08:30:33;18.50;26.00
67101;DHT22;54019;61.746;16.106;2022-12-18T08:32:58;18.60;25.90
67101;DHT22;54019;61.746;16.106;2022-12-18T08:35:24;18.60;25.80
67101;DHT22;54019;61.746;16.106;2022-12-18T08:37:50;18.60;25.80
67101;DHT22;54019;61.746;16.106;2022-12-18T08:40:16;18.60;25.90
67101;DHT22;54019;61.746;16.106;2022-12-18T08:42:42;18.50;25.70
67101;DHT22;54019;61.746;16.106;2022-12-18T08:45:08;18.50;25.90
67101;DHT22;54019;61.746;16.106;2022-12-18T08:47:36;18.50;26.20
67101;DHT22;54019;61.746;16.106;2022-12-18T08:50:01;18.40;26.20
67101;DHT22;54019;61.746;16.106;2022-12-18T08:52:27;18.40;26.60
67101;DHT22;54019;61.746;16.106;2022-12-18T08:54:53;18.40;27.10
67101;DHT22;54019;61.746;16.106;2022-12-18T08:57:19;18.40;27.20
67101;DHT22;54019;61.746;16.106;2022-12-18T08:59:44;18.30;27.30
67101;DHT22;54019;61.746;16.106;2022-12-18T09:02:11;18.30;27.40
67101;DHT22;54019;61.746;16.106;2022-12-18T09:04:38;18.30;27.50
67101;DHT22;54019;61.746;16.106;2022-12-18T09:07:04;18.30;27.40
67101;DHT22;54019;61.746;16.106;2022-12-18T09:09:30;18.20;27.20
67101;DHT22;54019;61.746;16.106;2022-12-18T09:11:55;18.20;28.10
67101;DHT22;54019;61.746;16.106;2022-12-18T09:14:21;18.20;27.80
67101;DHT22;54019;61.746;16.106;2022-12-18T09:16:47;18.20;27.30
67101;DHT22;54019;61.746;16.106;2022-12-18T09:19:13;18.10;27.40
67101;DHT22;54019;61.746;16.106;2022-12-18T09:21:40;18.20;27.70
67101;DHT22;54019;61.746;16.106;2022-12-18T09:24:06;18.20;27.00
67101;DHT22;54019;61.746;16.106;2022-12-18T09:26:36;18.30;26.40
67101;DHT22;54019;61.746;16.106;2022-12-18T09:29:03;18.30;26.20
67101;DHT22;54019;61.746;16.106;2022-12-18T09:31:28;18.30;26.00
67101;DHT22;54019;61.746;16.106;2022-12-18T09:33:55;18.30;26.20
67101;DHT22;54019;61.746;16.106;2022-12-18T09:36:20;18.40;26.10
67101;DHT22;54019;61.746;16.106;2022-12-18T09:38:48;18.50;25.80
67101;DHT22;54019;61.746;16.106;2022-12-18T09:41:25;18.50;26.00
67101;DHT22;54019;61.746;16.106;2022-12-18T09:43:59;18.50;26.00
67101;DHT22;54019;61.746;16.106;2022-12-18T09:46:28;18.50;25.80
67101;DHT22;54019;61.746;16.106;2022-12-18T09:48:57;18.50;25.80
67101;DHT22;54019;61.746;16.106;2022-12-18T09:51:28;18.50;25.90
67101;DHT22;54019;61.746;16.106;2022-12-18T09:53:59;18.50;25.80
67101;DHT22;54019;61.746;16.106;2022-12-18T09:56:29;18.50;26.00
67101;DHT22;54019;61.746;16.106;2022-12-18T09:58:59;18.50;25.90
67101;DHT22;54019;61.746;16.106;2022-12-18T10:01:26;18.40;26.00
67101;DHT22;54019;61.746;16.106;2022-12-18T10:03:54;18.40;26.20
67101;DHT22;54019;61.746;16.106;2022-12-18T10:06:22;18.40;26.40
67101;DHT22;54019;61.746;16.106;2022-12-18T10:08:54;18.30;26.20
67101;DHT22;54019;61.746;16.106;2022-12-18T10:11:40;18.30;26.60
67101;DHT22;54019;61.746;16.106;2022-12-18T10:14:14;18.30;26.60
67101;DHT22;54019;61.746;16.106;2022-12-18T10:16:54;18.30;26.50
67101;DHT22;54019;61.746;16.106;2022-12-18T10:19:34;18.30;26.50
67101;DHT22;54019;61.746;16.106;2022-12-18T10:22:11;18.20;26.50
67101;DHT22;54019;61.746;16.106;2022-12-18T10:24:46;18.30;26.60
67101;DHT22;54019;61.746;16.106;2022-12-18T10:27:17;18.20;26.60
67101;DHT22;54019;61.746;16.106;2022-12-18T10:29:44;18.30;26.60
67101;DHT22;54019;61.746;16.106;2022-12-18T10:32:15;18.30;26.20
67101;DHT22;54019;61.746;16.106;2022-12-18T10:34:45;18.30;25.70
67101;DHT22;54019;61.746;16.106;2022-12-18T10:37:15;18.30;25.70
67101;DHT22;54019;61.746;16.106;2022-12-18T10:39:41;18.40;25.80
67101;DHT22;54019;61.746;16.106;2022-12-18T10:42:11;18.40;25.50
67101;DHT22;54019;61.746;16.106;2022-12-18T10:44:42;18.50;25.60
67101;DHT22;54019;61.746;16.106;2022-12-18T10:47:14;18.50;25.50
67101;DHT22;54019;61.746;16.106;2022-12-18T10:49:47;18.60;25.70
67101;DHT22;54019;61.746;16.106;2022-12-18T10:52:17;18.60;25.60
67101;DHT22;54019;61.746;16.106;2022-12-18T10:54:48;18.60;25.70
67101;DHT22;54019;61.746;16.106;2022-12-18T10:57:16;18.60;25.80
67101;DHT22;54019;61.746;16.106;2022-12-18T10:59:54;18.60;25.80
67101;DHT22;54019;61.746;16.106;2022-12-18T11:02:28;18.60;25.80
67101;DHT22;54019;61.746;16.106;2022-12-18T11:04:58;18.50;25.80
67101;DHT22;54019;61.746;16.106;2022-12-18T11:07:24;18.50;25.70
67101;DHT22;54019;61.746;16.106;2022-12-18T11:10:05;18.50;26.00
67101;DHT22;54019;61.746;16.106;2022-12-18T11:12:31;18.40;25.90
67101;DHT22;54019;61.746;16.106;2022-12-18T11:14:58;18.40;26.00
67101;DHT22;54019;61.746;16.106;2022-12-18T11:17:28;18.40;26.60
67101;DHT22;54019;61.746;16.106;2022-12-18T11:19:56;18.40;26.80
67101;DHT22;54019;61.746;16.106;2022-12-18T11:22:24;18.30;26.80
67101;DHT22;54019;61.746;16.106;2022-12-18T11:24:55;18.30;26.50
67101;DHT22;54019;61.746;16.106;2022-12-18T11:27:21;18.30;26.80
67101;DHT22;54019;61.746;16.106;2022-12-18T11:29:49;18.30;29.00
67101;DHT22;54019;61.746;16.106;2022-12-18T11:32:31;18.30;27.20
67101;DHT22;54019;61.746;16.106;2022-12-18T11:35:03;18.30;27.10
67101;DHT22;54019;61.746;16.106;2022-12-18T11:37:30;18.30;27.40
67101;DHT22;54019;61.746;16.106;2022-12-18T11:39:59;18.30;27.60
67101;DHT22;54019;61.746;16.106;2022-12-18T11:42:30;18.40;28.00
67101;DHT22;54019;61.746;16.106;2022-12-18T11:45:03;18.40;27.90
67101;DHT22;54019;61.746;16.106;2022-12-18T11:47:40;18.40;28.00
67101;DHT22;54019;61.746;16.106;2022-12-18T11:50:13;18.50;27.70
67101;DHT22;54019;61.746;16.106;2022-12-18T11:52:40;18.50;27.80
67101;DHT22;54019;61.746;16.106;2022-12-18T11:55:11;18.60;27.40
67101;DHT22;54019;61.746;16.106;2022-12-18T11:57:41;18.60;27.70
67101;DHT22;54019;61.746;16.106;2022-12-18T12:00:13;18.60;27.60
67101;DHT22;54019;61.746;16.106;2022-12-18T12:03:00;18.70;27.40
67101;DHT22;54019;61.746;16.106;2022-12-18T12:05:42;18.60;27.40
67101;DHT22;54019;61.746;16.106;2022-12-18T12:08:15;18.60;27.20
67101;DHT22;54019;61.746;16.106;2022-12-18T12:10:47;18.60;27.00
67101;DHT22;54019;61.746;16.106;2022-12-18T12:13:37;18.60;27.60
67101;DHT22;54019;61.746;16.106;2022-12-18T12:16:13;18.50;27.70
67101;DHT22;54019;61.746;16.106;2022-12-18T12:18:51;18.50;28.20
67101;DHT22;54019;61.746;16.106;2022-12-18T12:21:25;18.50;28.10
67101;DHT22;54019;61.746;16.106;2022-12-18T12:23:57;18.50;28.30
67101;DHT22;54019;61.746;16.106;2022-12-18T12:26:31;18.50;28.00
67101;DHT22;54019;61.746;16.106;2022-12-18T12:29:00;18.50;28.20
67101;DHT22;54019;61.746;16.106;2022-12-18T12:31:39;18.50;28.70
67101;DHT22;54019;61.746;16.106;2022-12-18T12:34:14;18.50;28.90
67101;DHT22;54019;61.746;16.106;2022-12-18T12:36:52;18.50;28.70
67101;DHT22;54019;61.746;16.106;2022-12-18T12:39:27;18.50;28.70
67101;DHT22;54019;61.746;16.106;2022-12-18T12:41:56;18.40;28.70
67101;DHT22;54019;61.746;16.106;2022-12-18T12:44:24;18.40;29.00
67101;DHT22;54019;61.746;16.106;2022-12-18T12:46:54;18.50;29.20
67101;DHT22;54019;61.746;16.106;2022-12-18T12:49:27;18.40;28.80
67101;DHT22;54019;61.746;16.106;2022-12-18T12:52:03;18.40;28.40
67101;DHT22;54019;61.746;16.106;2022-12-18T12:54:32;18.50;28.20
67101;DHT22;54019;61.746;16.106;2022-12-18T12:57:01;18.50;28.90
67101;DHT22;54019;61.746;16.106;2022-12-18T12:59:36;18.60;28.00
67101;DHT22;54019;61.746;16.106;2022-12-18T13:02:10;18.70;29.10
67101;DHT22;54019;61.746;16.106;2022-12-18T13:04:47;18.80;29.30
67101;DHT22;54019;61.746;16.106;2022-12-18T13:07:17;18.90;29.60
67101;DHT22;54019;61.746;16.106;2022-12-18T13:10:22;19.10;29.60
67101;DHT22;54019;61.746;16.106;2022-12-18T13:12:52;19.20;28.90
67101;DHT22;54019;61.746;16.106;2022-12-18T13:15:21;19.30;28.40
67101;DHT22;54019;61.746;16.106;2022-12-18T13:17:48;19.20;28.50
67101;DHT22;54019;61.746;16.106;2022-12-18T13:20:15;19.10;28.60
67101;DHT22;54019;61.746;16.106;2022-12-18T13:22:44;19.00;28.10
67101;DHT22;54019;61.746;16.106;2022-12-18T13:25:30;19.00;28.40
67101;DHT22;54019;61.746;16.106;2022-12-18T13:28:05;19.00;29.00
67101;DHT22;54019;61.746;16.106;2022-12-18T13:30:53;19.10;29.20
67101;DHT22;54019;61.746;16.106;2022-12-18T13:33:37;19.10;30.00
67101;DHT22;54019;61.746;16.106;2022-12-18T13:36:13;19.10;30.30
67101;DHT22;54019;61.746;16.106;2022-12-18T13:38:40;19.20;30.60
67101;DHT22;54019;61.746;16.106;2022-12-18T13:41:22;19.10;30.60
67101;DHT22;54019;61.746;16.106;2022-12-18T13:43:49;19.10;30.80
67101;DHT22;54019;61.746;16.106;2022-12-18T13:46:27;19.10;30.60
67101;DHT22;54019;61.746;16.106;2022-12-18T13:49:00;19.10;30.90
67101;DHT22;54019;61.746;16.106;2022-12-18T13:51:28;19.00;29.70
67101;DHT22;54019;61.746;16.106;2022-12-18T13:53:58;19.00;29.50
67101;DHT22;54019;61.746;16.106;2022-12-18T13:56:26;18.90;29.10
67101;DHT22;54019;61.746;16.106;2022-12-18T13:59:17;19.00;28.70
67101;DHT22;54019;61.746;16.106;2022-12-18T14:01:50;19.00;29.10
67101;DHT22;54019;61.746;16.106;2022-12-18T14:04:20;19.00;29.00
67101;DHT22;54019;61.746;16.106;2022-12-18T14:06:50;19.10;29.20
67101;DHT22;54019;61.746;16.106;2022-12-18T14:09:19;19.20;28.60
67101;DHT22;54019;61.746;16.106;2022-12-18T14:11:47;19.20;28.90
67101;DHT22;54019;61.746;16.106;2022-12-18T14:14:14;19.20;28.60
67101;DHT22;54019;61.746;16.106;2022-12-18T14:16:41;19.20;28.30
67101;DHT22;54019;61.746;16.106;2022-12-18T14:19:12;19.20;28.50
67101;DHT22;54019;61.746;16.106;2022-12-18T14:21:39;19.20;28.40
67101;DHT22;54019;61.746;16.106;2022-12-18T14:24:14;19.20;28.40
67101;DHT22;54019;61.746;16.106;2022-12-18T14:26:40;19.10;28.40
67101;DHT22;54019;61.746;16.106;2022-12-18T14:29:20;19.10;28.50
67101;DHT22;54019;61.746;16.106;2022-12-18T14:31:50;19.10;28.60
67101;DHT22;54019;61.746;16.106;2022-12-18T14:34:29;19.10;28.50
67101;DHT22;54019;61.746;16.106;2022-12-18T14:36:54;19.00;27.70
67101;DHT22;54019;61.746;16.106;2022-12-18T14:39:22;19.00;27.90
67101;DHT22;54019;61.746;16.106;2022-12-18T14:41:49;18.90;27.70
67101;DHT22;54019;61.746;16.106;2022-12-18T14:44:14;18.90;27.90
67101;DHT22;54019;61.746;16.106;2022-12-18T14:46:44;18.90;28.10
67101;DHT22;54019;61.746;16.106;2022-12-18T14:49:19;18.90;27.80
67101;DHT22;54019;61.746;16.106;2022-12-18T14:51:48;18.80;28.00
67101;DHT22;54019;61.746;16.106;2022-12-18T14:54:16;18.80;28.50
67101;DHT22;54019;61.746;16.106;2022-12-18T14:56:46;18.80;28.10
67101;DHT22;54019;61.746;16.106;2022-12-18T14:59:14;18.70;27.80
67101;DHT22;54019;61.746;16.106;2022-12-18T15:01:47;18.70;27.70
67101;DHT22;54019;61.746;16.106;2022-12-18T15:04:26;18.70;28.10
67101;DHT22;54019;61.746;16.106;2022-12-18T15:07:04;18.80;28.20
67101;DHT22;54019;61.746;16.106;2022-12-18T15:09:30;18.90;29.20
67101;DHT22;54019;61.746;16.106;2022-12-18T15:11:58;18.90;29.70
67101;DHT22;54019;61.746;16.106;2022-12-18T15:14:32;19.00;29.90
67101;DHT22;54019;61.746;16.106;2022-12-18T15:16:59;19.20;30.40
67101;DHT22;54019;61.746;16.106;2022-12-18T15:19:34;19.30;30.00
67101;DHT22;54019;61.746;16.106;2022-12-18T15:22:00;19.40;29.80
67101;DHT22;54019;61.746;16.106;2022-12-18T15:24:30;19.40;30.10
67101;DHT22;54019;61.746;16.106;2022-12-18T15:26:57;19.50;30.20